sensor_id;sensor_type;location;lat;lon;timestamp;P1;durP1;ratioP1;P2;durP2;ratioP2
6638;SDS011;3355;52.882;8.430;2023-04-06T00:01:06;5.00;;;4.13;;
6638;SDS011;3355;52.882;8.430;2023-04-06T00:03:32;8.70;;;4.30;;
6638;SDS011;3355;52.882;8.430;2023-04-06T00:05:59;8.23;;;4.33;;
6638;SDS011;3355;52.882;8.430;2023-04-06T00:08:25;5.47;;;4.13;;
6638;SDS011;3355;52.882;8.430;2023-04-06T00:10:52;5.07;;;3.50;;
6638;SDS011;3355;52.882;8.430;2023-04-06T00:13:20;5.20;;;4.50;;
6638;SDS011;3355;52.882;8.430;2023-04-06T00:15:47;6.10;;;3.73;;
6638;SDS011;3355;52.882;8.430;2023-04-06T00:18:14;4.93;;;4.13;;
6638;SDS011;3355;52.882;8.430;2023-04-06T00:20:41;4.73;;;4.30;;
6638;SDS011;3355;52.882;8.430;2023-04-06T00:23:08;4.40;;;3.50;;
6638;SDS011;3355;52.882;8.430;2023-04-06T00:25:34;4.00;;;3.57;;
6638;SDS011;3355;52.882;8.430;2023-04-06T00:28:01;5.20;;;4.17;;
6638;SDS011;3355;52.882;8.430;2023-04-06T00:30:29;7.70;;;4.87;;
6638;SDS011;3355;52.882;8.430;2023-04-06T00:32:56;6.00;;;4.17;;
6638;SDS011;3355;52.882;8.430;2023-04-06T00:35:23;4.27;;;3.73;;
6638;SDS011;3355;52.882;8.430;2023-04-06T00:37:49;5.70;;;4.67;;
6638;SDS011;3355;52.882;8.430;2023-04-06T00:40:16;5.33;;;4.70;;
6638;SDS011;3355;52.882;8.430;2023-04-06T00:42:42;5.43;;;4.10;;
6638;SDS011;3355;52.882;8.430;2023-04-06T00:45:10;5.23;;;3.70;;
6638;SDS011;3355;52.882;8.430;2023-04-06T00:47:38;6.83;;;4.50;;
6638;SDS011;3355;52.882;8.430;2023-04-06T00:50:05;4.90;;;4.37;;
6638;SDS011;3355;52.882;8.430;2023-04-06T00:52:33;5.20;;;4.13;;
6638;SDS011;3355;52.882;8.430;2023-04-06T00:55:00;4.80;;;3.73;;
6638;SDS011;3355;52.882;8.430;2023-04-06T00:57:27;6.00;;;4.47;;
6638;SDS011;3355;52.882;8.430;2023-04-06T00:59:53;5.90;;;4.07;;
6638;SDS011;3355;52.882;8.430;2023-04-06T01:02:20;8.00;;;5.13;;
6638;SDS011;3355;52.882;8.430;2023-04-06T01:04:49;4.57;;;4.07;;
6638;SDS011;3355;52.882;8.430;2023-04-06T01:07:15;5.70;;;3.57;;
6638;SDS011;3355;52.882;8.430;2023-04-06T01:09:42;5.37;;;4.03;;
6638;SDS011;3355;52.882;8.430;2023-04-06T01:12:09;4.63;;;3.90;;
6638;SDS011;3355;52.882;8.430;2023-04-06T01:14:36;6.70;;;3.73;;
6638;SDS011;3355;52.882;8.430;2023-04-06T01:17:03;7.00;;;4.23;;
6638;SDS011;3355;52.882;8.430;2023-04-06T01:19:29;5.30;;;4.63;;
6638;SDS011;3355;52.882;8.430;2023-04-06T01:21:57;4.10;;;3.70;;
6638;SDS011;3355;52.882;8.430;2023-04-06T01:24:26;7.50;;;3.93;;
6638;SDS011;3355;52.882;8.430;2023-04-06T01:26:52;4.40;;;3.63;;
6638;SDS011;3355;52.882;8.430;2023-04-06T01:29:19;5.40;;;3.77;;
6638;SDS011;3355;52.882;8.430;2023-04-06T01:31:45;4.40;;;4.00;;
6638;SDS011;3355;52.882;8.430;2023-04-06T01:34:12;5.50;;;4.73;;
6638;SDS011;3355;52.882;8.430;2023-04-06T01:36:39;4.87;;;3.20;;
6638;SDS011;3355;52.882;8.430;2023-04-06T01:39:05;3.73;;;3.40;;
6638;SDS011;3355;52.882;8.430;2023-04-06T01:41:33;5.50;;;4.33;;
6638;SDS011;3355;52.882;8.430;2023-04-06T01:44:00;4.23;;;3.83;;
6638;SDS011;3355;52.882;8.430;2023-04-06T01:46:28;5.17;;;4.40;;
6638;SDS011;3355;52.882;8.430;2023-04-06T01:48:55;6.57;;;4.43;;
6638;SDS011;3355;52.882;8.430;2023-04-06T01:51:22;7.43;;;4.87;;
6638;SDS011;3355;52.882;8.430;2023-04-06T01:53:49;4.17;;;3.60;;
6638;SDS011;3355;52.882;8.430;2023-04-06T01:56:16;5.87;;;4.60;;
6638;SDS011;3355;52.882;8.430;2023-04-06T01:58:44;5.40;;;4.87;;
6638;SDS011;3355;52.882;8.430;2023-04-06T02:01:10;7.80;;;3.60;;
6638;SDS011;3355;52.882;8.430;2023-04-06T02:03:38;8.60;;;4.20;;
6638;SDS011;3355;52.882;8.430;2023-04-06T02:06:05;4.87;;;4.20;;
6638;SDS011;3355;52.882;8.430;2023-04-06T02:08:32;3.87;;;3.53;;
6638;SDS011;3355;52.882;8.430;2023-04-06T02:11:00;5.13;;;3.50;;
6638;SDS011;3355;52.882;8.430;2023-04-06T02:13:27;4.40;;;4.00;;
6638;SDS011;3355;52.882;8.430;2023-04-06T02:15:55;6.07;;;4.37;;
6638;SDS011;3355;52.882;8.430;2023-04-06T02:18:22;5.07;;;4.00;;
6638;SDS011;3355;52.882;8.430;2023-04-06T02:20:49;5.57;;;4.60;;
6638;SDS011;3355;52.882;8.430;2023-04-06T02:23:15;9.17;;;4.70;;
6638;SDS011;3355;52.882;8.430;2023-04-06T02:25:42;5.50;;;4.30;;
6638;SDS011;3355;52.882;8.430;2023-04-06T02:28:09;8.33;;;4.33;;
6638;SDS011;3355;52.882;8.430;2023-04-06T02:30:35;6.50;;;4.20;;
6638;SDS011;3355;52.882;8.430;2023-04-06T02:33:03;6.43;;;4.50;;
6638;SDS011;3355;52.882;8.430;2023-04-06T02:35:31;5.07;;;4.10;;
6638;SDS011;3355;52.882;8.430;2023-04-06T02:37:57;5.17;;;4.27;;
6638;SDS011;3355;52.882;8.430;2023-04-06T02:40:24;5.73;;;4.47;;
6638;SDS011;3355;52.882;8.430;2023-04-06T02:42:51;6.30;;;4.20;;
6638;SDS011;3355;52.882;8.430;2023-04-06T02:45:17;4.70;;;4.00;;
6638;SDS011;3355;52.882;8.430;2023-04-06T02:47:45;6.07;;;4.47;;
6638;SDS011;3355;52.882;8.430;2023-04-06T02:50:14;6.20;;;4.10;;
6638;SDS011;3355;52.882;8.430;2023-04-06T02:52:41;7.30;;;5.10;;
6638;SDS011;3355;52.882;8.430;2023-04-06T02:55:08;5.57;;;4.10;;
6638;SDS011;3355;52.882;8.430;2023-04-06T02:57:35;6.03;;;4.83;;
6638;SDS011;3355;52.882;8.430;2023-04-06T03:00:02;5.80;;;4.20;;
6638;SDS011;3355;52.882;8.430;2023-04-06T03:02:29;7.47;;;4.30;;
6638;SDS011;3355;52.882;8.430;2023-04-06T03:04:56;6.83;;;5.43;;
6638;SDS011;3355;52.882;8.430;2023-04-06T03:07:24;5.50;;;4.80;;
6638;SDS011;3355;52.882;8.430;2023-04-06T03:09:51;8.50;;;6.33;;
6638;SDS011;3355;52.882;8.430;2023-04-06T03:12:17;5.03;;;4.30;;
6638;SDS011;3355;52.882;8.430;2023-04-06T03:14:44;7.57;;;4.77;;
6638;SDS011;3355;52.882;8.430;2023-04-06T03:17:11;5.17;;;4.60;;
6638;SDS011;3355;52.882;8.430;2023-04-06T03:19:38;7.20;;;4.77;;
6638;SDS011;3355;52.882;8.430;2023-04-06T03:22:04;6.27;;;4.57;;
6638;SDS011;3355;52.882;8.430;2023-04-06T03:24:32;4.77;;;4.30;;
6638;SDS011;3355;52.882;8.430;2023-04-06T03:26:59;5.00;;;4.47;;
6638;SDS011;3355;52.882;8.430;2023-04-06T03:29:26;5.20;;;4.53;;
6638;SDS011;3355;52.882;8.430;2023-04-06T03:31:53;5.50;;;5.00;;
6638;SDS011;3355;52.882;8.430;2023-04-06T03:34:19;5.90;;;5.30;;
6638;SDS011;3355;52.882;8.430;2023-04-06T03:36:46;6.83;;;4.50;;
6638;SDS011;3355;52.882;8.430;2023-04-06T03:39:13;5.87;;;4.93;;
6638;SDS011;3355;52.882;8.430;2023-04-06T03:41:41;6.20;;;5.00;;
6638;SDS011;3355;52.882;8.430;2023-04-06T03:44:08;8.53;;;5.30;;
6638;SDS011;3355;52.882;8.430;2023-04-06T03:46:36;5.50;;;5.00;;
6638;SDS011;3355;52.882;8.430;2023-04-06T03:49:03;7.03;;;5.03;;
6638;SDS011;3355;52.882;8.430;2023-04-06T03:51:30;5.50;;;5.00;;
6638;SDS011;3355;52.882;8.430;2023-04-06T03:53:56;6.13;;;4.83;;
6638;SDS011;3355;52.882;8.430;2023-04-06T03:56:25;4.47;;;3.97;;
6638;SDS011;3355;52.882;8.430;2023-04-06T03:58:53;7.57;;;4.27;;
6638;SDS011;3355;52.882;8.430;2023-04-06T04:01:20;5.80;;;4.97;;
6638;SDS011;3355;52.882;8.430;2023-04-06T04:03:46;7.30;;;5.60;;
6638;SDS011;3355;52.882;8.430;2023-04-06T04:06:13;6.33;;;5.30;;
6638;SDS011;3355;52.882;8.430;2023-04-06T04:08:40;8.80;;;6.43;;
6638;SDS011;3355;52.882;8.430;2023-04-06T04:11:06;7.23;;;4.63;;
6638;SDS011;3355;52.882;8.430;2023-04-06T04:13:33;7.77;;;6.00;;
6638;SDS011;3355;52.882;8.430;2023-04-06T04:16:01;14.63;;;6.00;;
6638;SDS011;3355;52.882;8.430;2023-04-06T04:18:28;6.07;;;5.47;;
6638;SDS011;3355;52.882;8.430;2023-04-06T04:20:54;5.07;;;4.53;;
6638;SDS011;3355;52.882;8.430;2023-04-06T04:23:21;5.83;;;5.20;;
6638;SDS011;3355;52.882;8.430;2023-04-06T04:25:48;5.60;;;4.83;;
6638;SDS011;3355;52.882;8.430;2023-04-06T04:28:16;5.73;;;4.90;;
6638;SDS011;3355;52.882;8.430;2023-04-06T04:30:42;9.63;;;5.03;;
6638;SDS011;3355;52.882;8.430;2023-04-06T04:33:10;5.27;;;4.70;;
6638;SDS011;3355;52.882;8.430;2023-04-06T04:35:37;6.10;;;4.80;;
6638;SDS011;3355;52.882;8.430;2023-04-06T04:38:04;7.57;;;5.07;;
6638;SDS011;3355;52.882;8.430;2023-04-06T04:40:30;6.70;;;5.50;;
6638;SDS011;3355;52.882;8.430;2023-04-06T04:42:57;7.63;;;5.20;;
6638;SDS011;3355;52.882;8.430;2023-04-06T04:45:24;6.27;;;5.67;;
6638;SDS011;3355;52.882;8.430;2023-04-06T04:47:50;6.63;;;5.33;;
6638;SDS011;3355;52.882;8.430;2023-04-06T04:50:18;5.60;;;4.93;;
6638;SDS011;3355;52.882;8.430;2023-04-06T04:52:45;9.83;;;6.00;;
6638;SDS011;3355;52.882;8.430;2023-04-06T04:55:12;5.43;;;4.93;;
6638;SDS011;3355;52.882;8.430;2023-04-06T04:57:39;5.70;;;5.10;;
6638;SDS011;3355;52.882;8.430;2023-04-06T05:00:06;6.20;;;5.60;;
6638;SDS011;3355;52.882;8.430;2023-04-06T05:02:33;5.77;;;5.27;;
6638;SDS011;3355;52.882;8.430;2023-04-06T05:05:00;6.50;;;5.53;;
6638;SDS011;3355;52.882;8.430;2023-04-06T05:07:29;6.60;;;5.90;;
6638;SDS011;3355;52.882;8.430;2023-04-06T05:09:55;7.53;;;5.63;;
6638;SDS011;3355;52.882;8.430;2023-04-06T05:12:23;6.13;;;5.60;;
6638;SDS011;3355;52.882;8.430;2023-04-06T05:14:49;8.50;;;5.67;;
6638;SDS011;3355;52.882;8.430;2023-04-06T05:17:16;5.90;;;5.27;;
6638;SDS011;3355;52.882;8.430;2023-04-06T05:19:43;8.47;;;5.67;;
6638;SDS011;3355;52.882;8.430;2023-04-06T05:22:10;7.47;;;5.60;;
6638;SDS011;3355;52.882;8.430;2023-04-06T05:24:40;6.53;;;5.80;;
6638;SDS011;3355;52.882;8.430;2023-04-06T05:27:07;8.33;;;5.60;;
6638;SDS011;3355;52.882;8.430;2023-04-06T05:29:34;6.17;;;5.57;;
6638;SDS011;3355;52.882;8.430;2023-04-06T05:32:01;6.17;;;5.43;;
6638;SDS011;3355;52.882;8.430;2023-04-06T05:34:27;8.47;;;6.33;;
6638;SDS011;3355;52.882;8.430;2023-04-06T05:36:54;6.50;;;5.80;;
6638;SDS011;3355;52.882;8.430;2023-04-06T05:39:21;7.60;;;5.23;;
6638;SDS011;3355;52.882;8.430;2023-04-06T05:41:49;6.50;;;5.53;;
6638;SDS011;3355;52.882;8.430;2023-04-06T05:44:16;10.13;;;7.27;;
6638;SDS011;3355;52.882;8.430;2023-04-06T05:46:42;7.30;;;6.13;;
6638;SDS011;3355;52.882;8.430;2023-04-06T05:49:09;7.93;;;5.50;;
6638;SDS011;3355;52.882;8.430;2023-04-06T05:51:35;5.80;;;5.20;;
6638;SDS011;3355;52.882;8.430;2023-04-06T05:54:02;9.10;;;6.53;;
6638;SDS011;3355;52.882;8.430;2023-04-06T05:56:29;9.03;;;5.80;;
6638;SDS011;3355;52.882;8.430;2023-04-06T05:58:58;7.30;;;5.20;;
6638;SDS011;3355;52.882;8.430;2023-04-06T06:01:25;7.50;;;6.23;;
6638;SDS011;3355;52.882;8.430;2023-04-06T06:03:51;6.80;;;5.70;;
6638;SDS011;3355;52.882;8.430;2023-04-06T06:06:18;6.50;;;5.20;;
6638;SDS011;3355;52.882;8.430;2023-04-06T06:08:45;7.40;;;5.90;;
6638;SDS011;3355;52.882;8.430;2023-04-06T06:11:12;9.00;;;6.87;;
6638;SDS011;3355;52.882;8.430;2023-04-06T06:13:41;7.93;;;6.03;;
6638;SDS011;3355;52.882;8.430;2023-04-06T06:16:09;6.20;;;5.17;;
6638;SDS011;3355;52.882;8.430;2023-04-06T06:18:39;6.70;;;6.07;;
6638;SDS011;3355;52.882;8.430;2023-04-06T06:21:07;6.33;;;5.63;;
6638;SDS011;3355;52.882;8.430;2023-04-06T06:23:34;6.63;;;5.80;;
6638;SDS011;3355;52.882;8.430;2023-04-06T06:26:00;7.37;;;5.80;;
6638;SDS011;3355;52.882;8.430;2023-04-06T06:28:27;7.53;;;5.63;;
6638;SDS011;3355;52.882;8.430;2023-04-06T06:30:54;7.10;;;6.50;;
6638;SDS011;3355;52.882;8.430;2023-04-06T06:33:29;7.83;;;5.97;;
6638;SDS011;3355;52.882;8.430;2023-04-06T06:35:55;5.70;;;5.20;;
6638;SDS011;3355;52.882;8.430;2023-04-06T06:38:22;7.20;;;5.90;;
6638;SDS011;3355;52.882;8.430;2023-04-06T06:40:49;5.93;;;5.10;;
6638;SDS011;3355;52.882;8.430;2023-04-06T06:43:16;6.20;;;5.60;;
6638;SDS011;3355;52.882;8.430;2023-04-06T06:45:43;8.90;;;5.23;;
6638;SDS011;3355;52.882;8.430;2023-04-06T06:48:10;6.07;;;5.07;;
6638;SDS011;3355;52.882;8.430;2023-04-06T06:50:42;5.03;;;4.53;;
6638;SDS011;3355;52.882;8.430;2023-04-06T06:53:09;6.90;;;5.17;;
6638;SDS011;3355;52.882;8.430;2023-04-06T06:55:36;10.27;;;5.07;;
6638;SDS011;3355;52.882;8.430;2023-04-06T06:58:09;6.53;;;5.33;;
6638;SDS011;3355;52.882;8.430;2023-04-06T07:00:36;8.90;;;6.30;;
6638;SDS011;3355;52.882;8.430;2023-04-06T07:03:09;7.67;;;4.93;;
6638;SDS011;3355;52.882;8.430;2023-04-06T07:05:35;8.00;;;5.67;;
6638;SDS011;3355;52.882;8.430;2023-04-06T07:08:04;7.13;;;5.90;;
6638;SDS011;3355;52.882;8.430;2023-04-06T07:10:30;6.93;;;5.17;;
6638;SDS011;3355;52.882;8.430;2023-04-06T07:12:57;6.33;;;5.60;;
6638;SDS011;3355;52.882;8.430;2023-04-06T07:15:27;6.87;;;5.20;;
6638;SDS011;3355;52.882;8.430;2023-04-06T07:17:53;5.80;;;5.20;;
6638;SDS011;3355;52.882;8.430;2023-04-06T07:20:21;5.47;;;4.90;;
6638;SDS011;3355;52.882;8.430;2023-04-06T07:22:48;5.27;;;4.77;;
6638;SDS011;3355;52.882;8.430;2023-04-06T07:25:16;6.47;;;5.00;;
6638;SDS011;3355;52.882;8.430;2023-04-06T07:27:44;7.33;;;5.07;;
6638;SDS011;3355;52.882;8.430;2023-04-06T07:30:10;6.37;;;5.73;;
6638;SDS011;3355;52.882;8.430;2023-04-06T07:32:37;5.80;;;5.10;;
6638;SDS011;3355;52.882;8.430;2023-04-06T07:35:04;5.10;;;4.37;;
6638;SDS011;3355;52.882;8.430;2023-04-06T07:37:31;7.20;;;6.03;;
6638;SDS011;3355;52.882;8.430;2023-04-06T07:39:58;6.33;;;5.10;;
6638;SDS011;3355;52.882;8.430;2023-04-06T07:42:26;6.40;;;5.67;;
6638;SDS011;3355;52.882;8.430;2023-04-06T07:44:53;7.97;;;4.83;;
6638;SDS011;3355;52.882;8.430;2023-04-06T07:47:20;6.67;;;5.23;;
6638;SDS011;3355;52.882;8.430;2023-04-06T07:49:46;6.63;;;5.13;;
6638;SDS011;3355;52.882;8.430;2023-04-06T07:52:13;7.37;;;5.40;;
6638;SDS011;3355;52.882;8.430;2023-04-06T07:54:40;6.07;;;5.50;;
6638;SDS011;3355;52.882;8.430;2023-04-06T07:57:07;5.90;;;5.00;;
6638;SDS011;3355;52.882;8.430;2023-04-06T07:59:36;7.33;;;5.40;;
6638;SDS011;3355;52.882;8.430;2023-04-06T08:02:03;5.60;;;4.87;;
6638;SDS011;3355;52.882;8.430;2023-04-06T08:04:30;7.50;;;5.73;;
6638;SDS011;3355;52.882;8.430;2023-04-06T08:06:57;5.63;;;5.10;;
6638;SDS011;3355;52.882;8.430;2023-04-06T08:09:24;7.03;;;5.20;;
6638;SDS011;3355;52.882;8.430;2023-04-06T08:11:51;8.07;;;5.87;;
6638;SDS011;3355;52.882;8.430;2023-04-06T08:14:18;7.53;;;5.70;;
6638;SDS011;3355;52.882;8.430;2023-04-06T08:16:46;6.47;;;5.77;;
6638;SDS011;3355;52.882;8.430;2023-04-06T08:19:13;6.17;;;5.40;;
6638;SDS011;3355;52.882;8.430;2023-04-06T08:21:42;7.20;;;5.87;;
6638;SDS011;3355;52.882;8.430;2023-04-06T08:24:09;7.00;;;5.87;;
6638;SDS011;3355;52.882;8.430;2023-04-06T08:26:35;6.37;;;5.60;;
6638;SDS011;3355;52.882;8.430;2023-04-06T08:29:03;6.47;;;5.67;;
6638;SDS011;3355;52.882;8.430;2023-04-06T08:31:32;8.53;;;6.70;;
6638;SDS011;3355;52.882;8.430;2023-04-06T08:34:00;6.90;;;6.13;;
6638;SDS011;3355;52.882;8.430;2023-04-06T08:36:28;7.40;;;5.90;;
6638;SDS011;3355;52.882;8.430;2023-04-06T08:38:54;5.87;;;5.20;;
6638;SDS011;3355;52.882;8.430;2023-04-06T08:41:21;5.80;;;5.30;;
6638;SDS011;3355;52.882;8.430;2023-04-06T08:43:52;6.83;;;5.73;;
6638;SDS011;3355;52.882;8.430;2023-04-06T08:46:22;5.90;;;5.37;;
6638;SDS011;3355;52.882;8.430;2023-04-06T08:48:54;8.23;;;5.50;;
6638;SDS011;3355;52.882;8.430;2023-04-06T08:51:23;7.00;;;6.30;;
6638;SDS011;3355;52.882;8.430;2023-04-06T08:53:51;6.03;;;5.40;;
6638;SDS011;3355;52.882;8.430;2023-04-06T08:56:19;6.00;;;5.47;;
6638;SDS011;3355;52.882;8.430;2023-04-06T08:58:46;6.70;;;6.07;;
6638;SDS011;3355;52.882;8.430;2023-04-06T09:01:14;8.17;;;5.50;;
6638;SDS011;3355;52.882;8.430;2023-04-06T09:03:42;6.77;;;5.40;;
6638;SDS011;3355;52.882;8.430;2023-04-06T09:06:09;8.37;;;6.77;;
6638;SDS011;3355;52.882;8.430;2023-04-06T09:08:39;6.60;;;6.00;;
6638;SDS011;3355;52.882;8.430;2023-04-06T09:11:06;7.63;;;5.93;;
6638;SDS011;3355;52.882;8.430;2023-04-06T09:13:43;7.70;;;6.70;;
6638;SDS011;3355;52.882;8.430;2023-04-06T09:16:10;7.20;;;6.50;;
6638;SDS011;3355;52.882;8.430;2023-04-06T09:18:37;7.03;;;5.33;;
6638;SDS011;3355;52.882;8.430;2023-04-06T09:21:05;6.60;;;6.00;;
6638;SDS011;3355;52.882;8.430;2023-04-06T09:23:33;7.23;;;5.80;;
6638;SDS011;3355;52.882;8.430;2023-04-06T09:26:09;7.07;;;6.37;;
6638;SDS011;3355;52.882;8.430;2023-04-06T09:28:43;6.97;;;5.90;;
6638;SDS011;3355;52.882;8.430;2023-04-06T09:31:11;7.57;;;6.87;;
6638;SDS011;3355;52.882;8.430;2023-04-06T09:33:38;10.57;;;6.57;;
6638;SDS011;3355;52.882;8.430;2023-04-06T09:36:06;7.77;;;6.30;;
6638;SDS011;3355;52.882;8.430;2023-04-06T09:38:34;8.13;;;6.33;;
6638;SDS011;3355;52.882;8.430;2023-04-06T09:41:02;6.00;;;5.40;;
6638;SDS011;3355;52.882;8.430;2023-04-06T09:43:31;9.37;;;6.93;;
6638;SDS011;3355;52.882;8.430;2023-04-06T09:45:58;8.87;;;7.27;;
6638;SDS011;3355;52.882;8.430;2023-04-06T09:48:28;7.10;;;6.30;;
6638;SDS011;3355;52.882;8.430;2023-04-06T09:50:59;7.33;;;6.20;;
6638;SDS011;3355;52.882;8.430;2023-04-06T09:53:27;7.90;;;6.40;;
6638;SDS011;3355;52.882;8.430;2023-04-06T09:55:56;7.07;;;6.30;;
6638;SDS011;3355;52.882;8.430;2023-04-06T09:58:24;8.13;;;6.07;;
6638;SDS011;3355;52.882;8.430;2023-04-06T10:00:54;8.13;;;6.10;;
6638;SDS011;3355;52.882;8.430;2023-04-06T10:03:28;8.73;;;6.80;;
6638;SDS011;3355;52.882;8.430;2023-04-06T10:06:04;6.47;;;5.83;;
6638;SDS011;3355;52.882;8.430;2023-04-06T10:08:32;8.10;;;6.60;;
6638;SDS011;3355;52.882;8.430;2023-04-06T10:11:01;8.53;;;7.63;;
6638;SDS011;3355;52.882;8.430;2023-04-06T10:13:28;7.23;;;6.37;;
6638;SDS011;3355;52.882;8.430;2023-04-06T10:15:56;8.83;;;7.93;;
6638;SDS011;3355;52.882;8.430;2023-04-06T10:18:23;8.93;;;7.53;;
6638;SDS011;3355;52.882;8.430;2023-04-06T10:20:53;8.93;;;7.27;;
6638;SDS011;3355;52.882;8.430;2023-04-06T10:23:22;12.70;;;6.70;;
6638;SDS011;3355;52.882;8.430;2023-04-06T10:25:52;8.10;;;7.30;;
6638;SDS011;3355;52.882;8.430;2023-04-06T10:28:20;10.13;;;8.97;;
6638;SDS011;3355;52.882;8.430;2023-04-06T10:30:47;10.73;;;8.00;;
6638;SDS011;3355;52.882;8.430;2023-04-06T10:33:15;9.43;;;8.47;;
6638;SDS011;3355;52.882;8.430;2023-04-06T10:35:42;11.60;;;8.60;;
6638;SDS011;3355;52.882;8.430;2023-04-06T10:38:09;9.00;;;7.70;;
6638;SDS011;3355;52.882;8.430;2023-04-06T10:40:38;12.63;;;9.10;;
6638;SDS011;3355;52.882;8.430;2023-04-06T10:43:09;8.90;;;8.00;;
6638;SDS011;3355;52.882;8.430;2023-04-06T10:45:37;9.47;;;7.83;;
6638;SDS011;3355;52.882;8.430;2023-04-06T10:48:15;9.47;;;8.47;;
6638;SDS011;3355;52.882;8.430;2023-04-06T10:50:43;10.20;;;7.80;;
6638;SDS011;3355;52.882;8.430;2023-04-06T10:53:11;11.37;;;8.10;;
6638;SDS011;3355;52.882;8.430;2023-04-06T10:55:38;10.10;;;7.80;;
6638;SDS011;3355;52.882;8.430;2023-04-06T10:58:06;9.63;;;8.57;;
6638;SDS011;3355;52.882;8.430;2023-04-06T11:00:33;17.40;;;9.07;;
6638;SDS011;3355;52.882;8.430;2023-04-06T11:03:00;10.60;;;9.23;;
6638;SDS011;3355;52.882;8.430;2023-04-06T11:05:28;12.10;;;9.17;;
6638;SDS011;3355;52.882;8.430;2023-04-06T11:07:56;9.70;;;8.00;;
6638;SDS011;3355;52.882;8.430;2023-04-06T11:10:23;9.00;;;8.10;;
6638;SDS011;3355;52.882;8.430;2023-04-06T11:12:52;9.20;;;8.30;;
6638;SDS011;3355;52.882;8.430;2023-04-06T11:15:19;9.43;;;8.43;;
6638;SDS011;3355;52.882;8.430;2023-04-06T11:17:46;11.63;;;9.10;;
6638;SDS011;3355;52.882;8.430;2023-04-06T11:20:14;11.33;;;9.20;;
6638;SDS011;3355;52.882;8.430;2023-04-06T11:22:49;10.40;;;9.30;;
6638;SDS011;3355;52.882;8.430;2023-04-06T11:25:16;12.50;;;9.13;;
6638;SDS011;3355;52.882;8.430;2023-04-06T11:27:44;9.27;;;8.30;;
6638;SDS011;3355;52.882;8.430;2023-04-06T11:30:13;9.87;;;8.87;;
6638;SDS011;3355;52.882;8.430;2023-04-06T11:32:40;9.90;;;8.50;;
6638;SDS011;3355;52.882;8.430;2023-04-06T11:35:10;10.60;;;8.57;;
6638;SDS011;3355;52.882;8.430;2023-04-06T11:37:37;10.30;;;8.73;;
6638;SDS011;3355;52.882;8.430;2023-04-06T11:40:07;10.87;;;8.47;;
6638;SDS011;3355;52.882;8.430;2023-04-06T11:42:34;9.20;;;8.30;;
6638;SDS011;3355;52.882;8.430;2023-04-06T11:45:01;9.70;;;8.70;;
6638;SDS011;3355;52.882;8.430;2023-04-06T11:47:28;9.90;;;8.90;;
6638;SDS011;3355;52.882;8.430;2023-04-06T11:49:56;9.70;;;8.70;;
6638;SDS011;3355;52.882;8.430;2023-04-06T11:52:32;10.97;;;9.23;;
6638;SDS011;3355;52.882;8.430;2023-04-06T11:54:58;12.77;;;10.23;;
6638;SDS011;3355;52.882;8.430;2023-04-06T11:57:39;10.23;;;8.37;;
6638;SDS011;3355;52.882;8.430;2023-04-06T12:00:06;10.13;;;9.00;;
6638;SDS011;3355;52.882;8.430;2023-04-06T12:02:34;10.00;;;9.00;;
6638;SDS011;3355;52.882;8.430;2023-04-06T12:05:01;11.00;;;8.60;;
6638;SDS011;3355;52.882;8.430;2023-04-06T12:07:28;9.17;;;8.13;;
6638;SDS011;3355;52.882;8.430;2023-04-06T12:09:54;10.03;;;8.70;;
6638;SDS011;3355;52.882;8.430;2023-04-06T12:12:22;9.83;;;8.73;;
6638;SDS011;3355;52.882;8.430;2023-04-06T12:14:50;9.07;;;8.10;;
6638;SDS011;3355;52.882;8.430;2023-04-06T12:17:17;10.03;;;8.77;;
6638;SDS011;3355;52.882;8.430;2023-04-06T12:19:44;9.47;;;8.50;;
6638;SDS011;3355;52.882;8.430;2023-04-06T12:22:11;9.77;;;8.77;;
6638;SDS011;3355;52.882;8.430;2023-04-06T12:24:37;9.73;;;8.73;;
6638;SDS011;3355;52.882;8.430;2023-04-06T12:27:04;8.70;;;7.90;;
6638;SDS011;3355;52.882;8.430;2023-04-06T12:29:32;9.47;;;8.57;;
6638;SDS011;3355;52.882;8.430;2023-04-06T12:31:59;9.53;;;8.53;;
6638;SDS011;3355;52.882;8.430;2023-04-06T12:34:26;12.40;;;8.70;;
6638;SDS011;3355;52.882;8.430;2023-04-06T12:36:53;9.97;;;8.90;;
6638;SDS011;3355;52.882;8.430;2023-04-06T12:39:20;10.27;;;8.77;;
6638;SDS011;3355;52.882;8.430;2023-04-06T12:41:47;9.80;;;8.77;;
6638;SDS011;3355;52.882;8.430;2023-04-06T12:44:14;9.60;;;8.20;;
6638;SDS011;3355;52.882;8.430;2023-04-06T12:46:42;9.90;;;8.30;;
6638;SDS011;3355;52.882;8.430;2023-04-06T12:49:09;8.90;;;8.00;;
6638;SDS011;3355;52.882;8.430;2023-04-06T12:51:36;8.60;;;7.67;;
6638;SDS011;3355;52.882;8.430;2023-04-06T12:54:03;10.77;;;8.70;;
6638;SDS011;3355;52.882;8.430;2023-04-06T12:56:31;10.40;;;9.40;;
6638;SDS011;3355;52.882;8.430;2023-04-06T12:58:57;8.87;;;8.00;;
6638;SDS011;3355;52.882;8.430;2023-04-06T13:01:24;9.70;;;8.70;;
6638;SDS011;3355;52.882;8.430;2023-04-06T13:03:54;11.10;;;8.00;;
6638;SDS011;3355;52.882;8.430;2023-04-06T13:06:22;12.50;;;7.97;;
6638;SDS011;3355;52.882;8.430;2023-04-06T13:08:52;10.40;;;8.83;;
6638;SDS011;3355;52.882;8.430;2023-04-06T13:11:19;9.50;;;8.50;;
6638;SDS011;3355;52.882;8.430;2023-04-06T13:13:48;9.60;;;8.23;;
6638;SDS011;3355;52.882;8.430;2023-04-06T13:16:15;11.07;;;8.70;;
6638;SDS011;3355;52.882;8.430;2023-04-06T13:18:41;10.17;;;7.77;;
6638;SDS011;3355;52.882;8.430;2023-04-06T13:21:12;10.60;;;8.97;;
6638;SDS011;3355;52.882;8.430;2023-04-06T13:23:41;9.20;;;8.27;;
6638;SDS011;3355;52.882;8.430;2023-04-06T13:26:07;9.33;;;8.43;;
6638;SDS011;3355;52.882;8.430;2023-04-06T13:28:35;11.63;;;9.60;;
6638;SDS011;3355;52.882;8.430;2023-04-06T13:31:04;9.33;;;7.83;;
6638;SDS011;3355;52.882;8.430;2023-04-06T13:33:31;10.30;;;8.30;;
6638;SDS011;3355;52.882;8.430;2023-04-06T13:35:58;9.13;;;8.07;;
6638;SDS011;3355;52.882;8.430;2023-04-06T13:38:27;10.80;;;8.47;;
6638;SDS011;3355;52.882;8.430;2023-04-06T13:40:54;8.57;;;7.67;;
6638;SDS011;3355;52.882;8.430;2023-04-06T13:43:21;9.10;;;7.83;;
6638;SDS011;3355;52.882;8.430;2023-04-06T13:45:51;9.13;;;8.23;;
6638;SDS011;3355;52.882;8.430;2023-04-06T13:48:19;9.67;;;8.17;;
6638;SDS011;3355;52.882;8.430;2023-04-06T13:50:46;9.40;;;7.90;;
6638;SDS011;3355;52.882;8.430;2023-04-06T13:53:13;10.03;;;9.03;;
6638;SDS011;3355;52.882;8.430;2023-04-06T13:55:41;9.37;;;8.37;;
6638;SDS011;3355;52.882;8.430;2023-04-06T13:58:08;9.07;;;7.57;;
6638;SDS011;3355;52.882;8.430;2023-04-06T14:00:35;9.00;;;8.07;;
6638;SDS011;3355;52.882;8.430;2023-04-06T14:03:02;9.70;;;8.10;;
6638;SDS011;3355;52.882;8.430;2023-04-06T14:05:30;12.53;;;9.20;;
6638;SDS011;3355;52.882;8.430;2023-04-06T14:07:57;8.57;;;7.60;;
6638;SDS011;3355;52.882;8.430;2023-04-06T14:10:24;9.10;;;7.33;;
6638;SDS011;3355;52.882;8.430;2023-04-06T14:12:54;9.40;;;8.00;;
6638;SDS011;3355;52.882;8.430;2023-04-06T14:15:21;8.53;;;7.67;;
6638;SDS011;3355;52.882;8.430;2023-04-06T14:17:48;9.83;;;8.83;;
6638;SDS011;3355;52.882;8.430;2023-04-06T14:20:16;9.13;;;7.90;;
6638;SDS011;3355;52.882;8.430;2023-04-06T14:22:42;10.07;;;8.03;;
6638;SDS011;3355;52.882;8.430;2023-04-06T14:25:09;9.87;;;7.60;;
6638;SDS011;3355;52.882;8.430;2023-04-06T14:27:37;14.50;;;8.60;;
6638;SDS011;3355;52.882;8.430;2023-04-06T14:30:06;10.83;;;9.07;;
6638;SDS011;3355;52.882;8.430;2023-04-06T14:32:34;9.37;;;8.37;;
6638;SDS011;3355;52.882;8.430;2023-04-06T14:35:02;10.00;;;9.10;;
6638;SDS011;3355;52.882;8.430;2023-04-06T14:37:29;12.03;;;9.43;;
6638;SDS011;3355;52.882;8.430;2023-04-06T14:39:56;9.17;;;8.27;;
6638;SDS011;3355;52.882;8.430;2023-04-06T14:42:23;9.67;;;8.50;;
6638;SDS011;3355;52.882;8.430;2023-04-06T14:44:49;8.87;;;7.97;;
6638;SDS011;3355;52.882;8.430;2023-04-06T14:47:19;8.83;;;7.67;;
6638;SDS011;3355;52.882;8.430;2023-04-06T14:49:46;8.33;;;7.33;;
6638;SDS011;3355;52.882;8.430;2023-04-06T14:52:13;10.07;;;9.00;;
6638;SDS011;3355;52.882;8.430;2023-04-06T14:54:39;9.87;;;8.90;;
6638;SDS011;3355;52.882;8.430;2023-04-06T14:57:06;10.33;;;7.90;;
6638;SDS011;3355;52.882;8.430;2023-04-06T14:59:33;9.53;;;8.10;;
6638;SDS011;3355;52.882;8.430;2023-04-06T15:02:00;10.03;;;8.20;;
6638;SDS011;3355;52.882;8.430;2023-04-06T15:04:29;10.87;;;8.80;;
6638;SDS011;3355;52.882;8.430;2023-04-06T15:06:56;11.10;;;8.40;;
6638;SDS011;3355;52.882;8.430;2023-04-06T15:09:23;11.03;;;8.43;;
6638;SDS011;3355;52.882;8.430;2023-04-06T15:11:50;10.30;;;7.87;;
6638;SDS011;3355;52.882;8.430;2023-04-06T15:14:16;9.90;;;8.07;;